Aviation Digital Data Service (ADDS)

Output produced by METARs form (0627 UTC 21 August 2017)
found at http://aviationweather.gov/adds/metars/
 
KFAY 210535Z 2106/2206 VRB03KT P6SM SCT120 BKN250 
     FM210800 VRB02KT 4SM BR FEW250 
     TEMPO 2110/2112 2SM BR BKN003 
     FM211200 VRB02KT P6SM SCT250